Time;durP1;ratioP1;P1;durP2;ratioP2;P2;SDS_P1;SDS_P2;PMS_P1;PMS_P2;Temp;Humidity;BMP_temperature;BMP_pressure;BME280_temperature;BME280_humidity;BME280_pressure;Samples;Min_cycle;Max_cycle;Signal;HPM_P1;HPM_P2
2021/08/14 00:00:55;;;;;;;6.68;2.38;;;18.10;99.90;;;;;;5033478;28;20171;-83
2021/08/14 00:03:21;;;;;;;13.65;3.00;;;18.10;99.90;;;;;;5033333;28;20636;-83
2021/08/14 00:05:46;;;;;;;7.15;2.90;;;18.10;99.90;;;;;;5033584;28;20184;-83
2021/08/14 00:08:12;;;;;;;3.72;2.45;;;17.80;99.90;;;;;;5033465;28;20191;-83
2021/08/14 00:10:38;;;;;;;5.05;2.08;;;17.80;99.90;;;;;;5032990;28;20164;-83
2021/08/14 00:13:03;;;;;;;5.97;2.67;;;17.70;99.90;;;;;;5048227;28;20701;-83
2021/08/14 00:15:29;;;;;;;11.82;2.65;;;17.60;99.90;;;;;;5033187;28;20690;-84
2021/08/14 00:17:55;;;;;;;11.02;2.58;;;17.70;99.90;;;;;;5032706;28;20764;-83
2021/08/14 00:20:20;;;;;;;9.18;2.13;;;17.90;99.90;;;;;;5032745;28;20171;-82
2021/08/14 00:22:46;;;;;;;8.80;2.50;;;17.90;99.90;;;;;;5033120;28;20207;-84
2021/08/14 00:25:12;;;;;;;6.13;2.70;;;17.90;99.90;;;;;;5032872;28;20257;-84
2021/08/14 00:27:37;;;;;;;7.53;1.98;;;17.80;99.90;;;;;;5048279;28;20160;-81
2021/08/14 00:30:05;;;;;;;6.03;2.67;;;17.90;99.90;;;;;;5031577;28;20176;-84
2021/08/14 00:32:30;;;;;;;11.38;2.28;;;17.90;99.90;;;;;;5032878;28;20203;-84
2021/08/14 00:34:56;;;;;;;6.53;2.13;;;17.80;99.90;;;;;;5032692;28;20596;-81
2021/08/14 00:37:22;;;;;;;6.95;2.90;;;17.60;99.90;;;;;;5048011;28;20596;-83
2021/08/14 00:39:47;;;;;;;6.65;2.78;;;17.60;99.90;;;;;;5032391;28;20188;-83
2021/08/14 00:42:13;;;;;;;5.05;2.42;;;17.60;99.90;;;;;;5032346;28;20635;-83
2021/08/14 00:44:39;;;;;;;8.73;2.67;;;17.60;99.90;;;;;;5047768;28;20176;-84
2021/08/14 00:47:05;;;;;;;6.22;2.45;;;17.50;99.90;;;;;;5048126;28;20199;-83
2021/08/14 00:49:31;;;;;;;10.60;2.63;;;17.30;99.90;;;;;;5032875;28;20175;-83
2021/08/14 00:51:57;;;;;;;5.57;3.28;;;17.20;99.90;;;;;;5048006;28;20183;-84
2021/08/14 00:54:23;;;;;;;7.88;3.15;;;17.30;99.90;;;;;;5032637;28;20543;-82
2021/08/14 00:56:48;;;;;;;9.60;3.58;;;17.30;99.90;;;;;;5047959;28;20193;-83
2021/08/14 00:59:15;;;;;;;10.15;2.33;;;17.30;99.90;;;;;;5047940;28;20655;-83
2021/08/14 01:01:40;;;;;;;14.07;2.42;;;17.40;99.90;;;;;;5032444;28;20176;-84
2021/08/14 01:04:12;;;;;;;8.40;2.20;;;17.50;99.90;;;;;;5047719;28;20260;-84
2021/08/14 01:06:37;;;;;;;5.03;2.50;;;17.40;99.90;;;;;;5047109;28;20262;-84
2021/08/14 01:09:03;;;;;;;5.22;1.92;;;17.40;99.90;;;;;;5031259;28;20179;-82
2021/08/14 01:11:29;;;;;;;6.82;2.53;;;17.20;99.90;;;;;;5031802;28;20203;-83
2021/08/14 01:13:56;;;;;;;8.93;2.42;;;17.30;99.90;;;;;;5032134;28;20286;-83
2021/08/14 01:16:22;;;;;;;11.57;2.60;;;17.30;99.90;;;;;;5047814;28;20204;-83
2021/08/14 01:18:48;;;;;;;6.57;2.25;;;17.30;99.90;;;;;;5031909;28;20208;-83
2021/08/14 01:21:21;;;;;;;6.40;2.65;;;17.30;99.90;;;;;;5032265;28;20235;-83
2021/08/14 01:23:49;;;;;;;8.18;2.95;;;17.40;99.90;;;;;;5047966;28;20175;-84
2021/08/14 01:26:15;;;;;;;7.18;2.72;;;17.50;99.90;;;;;;5032304;28;20659;-82
2021/08/14 01:28:42;;;;;;;9.70;2.97;;;17.60;99.90;;;;;;5032109;28;20167;-84
2021/08/14 01:31:10;;;;;;;19.45;3.22;;;17.50;99.90;;;;;;5048585;28;20171;-83
2021/08/14 01:33:39;;;;;;;7.55;2.85;;;17.60;99.90;;;;;;5051443;28;20298;-83
2021/08/14 01:36:06;;;;;;;7.35;2.63;;;17.60;99.90;;;;;;5036237;28;20267;-83
2021/08/14 01:38:32;;;;;;;11.55;3.70;;;17.60;99.90;;;;;;5036355;28;20171;-81
2021/08/14 01:40:59;;;;;;;13.88;2.92;;;17.70;99.90;;;;;;5051081;28;20290;-84
2021/08/14 01:43:25;;;;;;;8.25;2.47;;;17.50;99.90;;;;;;5036164;28;20183;-84
2021/08/14 01:45:51;;;;;;;9.55;2.10;;;17.50;99.90;;;;;;5051365;28;20199;-83
2021/08/14 01:48:17;;;;;;;7.30;2.30;;;17.40;99.90;;;;;;5051613;28;20175;-84
2021/08/14 01:50:43;;;;;;;3.88;2.05;;;17.30;99.90;;;;;;5035834;28;20156;-83
2021/08/14 01:53:09;;;;;;;11.05;3.35;;;17.20;99.90;;;;;;5051370;28;20298;-82
2021/08/14 01:55:35;;;;;;;11.02;2.42;;;17.20;99.90;;;;;;5035277;28;20195;-83
2021/08/14 01:58:03;;;;;;;6.15;3.13;;;17.20;99.90;;;;;;5035858;28;20174;-82
2021/08/14 02:00:29;;;;;;;10.68;2.65;;;17.10;99.90;;;;;;5050485;28;20160;-82
2021/08/14 02:02:55;;;;;;;6.90;3.25;;;17.10;99.90;;;;;;5035573;28;20226;-84
2021/08/14 02:05:21;;;;;;;6.25;2.55;;;17.10;99.90;;;;;;5050911;28;20192;-81
2021/08/14 02:07:47;;;;;;;6.90;2.53;;;17.10;99.90;;;;;;5035794;28;20221;-83
2021/08/14 02:10:13;;;;;;;3.08;2.25;;;17.30;99.90;;;;;;5036154;28;20168;-83
2021/08/14 02:12:38;;;;;;;7.97;2.65;;;17.10;99.90;;;;;;5050975;28;20223;-83
2021/08/14 02:15:05;;;;;;;9.95;2.53;;;17.00;99.90;;;;;;5035432;28;20234;-83
2021/08/14 02:17:30;;;;;;;12.70;2.90;;;17.00;99.90;;;;;;5035242;28;20628;-83
2021/08/14 02:19:56;;;;;;;10.05;2.83;;;17.00;99.90;;;;;;5050893;28;20176;-83
2021/08/14 02:22:21;;;;;;;2.92;2.28;;;17.00;99.90;;;;;;5036360;28;20233;-83
2021/08/14 02:24:47;;;;;;;14.00;2.90;;;17.00;99.90;;;;;;5034069;28;20183;-82
2021/08/14 02:27:13;;;;;;;15.23;2.80;;;16.90;99.90;;;;;;5035256;28;20172;-83
2021/08/14 02:29:38;;;;;;;7.03;2.97;;;16.80;99.90;;;;;;5050653;28;20258;-82
2021/08/14 02:32:04;;;;;;;6.03;2.95;;;17.10;99.90;;;;;;5035527;28;20520;-83
2021/08/14 02:34:30;;;;;;;9.13;2.47;;;17.20;99.90;;;;;;5035356;28;20172;-82
2021/08/14 02:36:55;;;;;;;12.30;2.72;;;17.10;99.90;;;;;;5035381;28;20587;-83
2021/08/14 02:39:21;;;;;;;9.27;2.80;;;17.00;99.90;;;;;;5050147;28;20628;-83
2021/08/14 02:41:47;;;;;;;16.75;4.43;;;17.00;99.90;;;;;;5050519;28;20178;-83
2021/08/14 02:44:12;;;;;;;9.65;3.00;;;16.90;99.90;;;;;;5050637;28;20620;-83
2021/08/14 02:46:38;;;;;;;4.13;2.30;;;16.80;99.90;;;;;;5035211;28;20631;-84
2021/08/14 02:49:03;;;;;;;15.05;3.13;;;16.70;99.90;;;;;;5034905;28;20217;-83
2021/08/14 02:51:29;;;;;;;10.60;2.80;;;16.50;99.90;;;;;;5034892;28;20628;-83
2021/08/14 02:53:55;;;;;;;7.70;2.28;;;16.60;99.90;;;;;;5049759;28;20243;-84
2021/08/14 02:56:20;;;;;;;10.05;2.83;;;16.60;99.90;;;;;;5049431;28;20516;-83
2021/08/14 02:58:46;;;;;;;12.25;3.17;;;16.60;99.90;;;;;;5034695;28;20189;-84
2021/08/14 03:01:11;;;;;;;13.85;3.08;;;16.60;99.90;;;;;;5049471;28;20163;-81
2021/08/14 03:03:37;;;;;;;17.30;2.67;;;16.70;99.90;;;;;;5034702;28;20179;-84
2021/08/14 03:06:03;;;;;;;10.93;2.92;;;16.70;99.90;;;;;;5049447;28;20202;-84
2021/08/14 03:08:29;;;;;;;12.88;3.65;;;16.90;99.90;;;;;;5034458;28;20190;-82
2021/08/14 03:10:54;;;;;;;14.38;3.55;;;17.00;99.90;;;;;;5049406;28;20164;-84
2021/08/14 03:13:20;;;;;;;14.10;2.90;;;17.00;99.90;;;;;;5033168;28;20294;-82
2021/08/14 03:15:48;;;;;;;14.68;2.63;;;16.80;99.90;;;;;;5034512;28;20184;-84
2021/08/14 03:18:14;;;;;;;15.38;3.20;;;16.90;99.90;;;;;;5049654;28;20164;-84
2021/08/14 03:20:41;;;;;;;7.85;2.70;;;17.10;99.90;;;;;;5034643;28;20237;-84
2021/08/14 03:23:07;;;;;;;10.80;3.15;;;17.00;99.90;;;;;;5049756;28;20603;-83
2021/08/14 03:25:33;;;;;;;8.13;3.15;;;17.10;99.90;;;;;;5034194;28;20227;-83
2021/08/14 03:27:58;;;;;;;6.25;3.22;;;17.00;99.90;;;;;;5033957;28;20682;-83
2021/08/14 03:30:24;;;;;;;12.65;3.10;;;17.00;99.90;;;;;;5049593;28;20168;-84
2021/08/14 03:32:50;;;;;;;8.82;2.58;;;17.10;99.90;;;;;;5034594;28;20208;-83
2021/08/14 03:35:16;;;;;;;13.40;3.40;;;17.00;99.90;;;;;;5034472;28;20192;-83
2021/08/14 03:37:42;;;;;;;6.82;2.38;;;17.00;99.90;;;;;;5034045;28;20168;-83
2021/08/14 03:40:09;;;;;;;8.00;2.85;;;16.80;99.90;;;;;;5034045;28;20183;-84
2021/08/14 03:42:34;;;;;;;8.40;3.00;;;16.80;99.90;;;;;;5033581;28;20535;-83
2021/08/14 03:45:00;;;;;;;9.27;4.10;;;16.90;99.90;;;;;;5048707;28;20628;-82
2021/08/14 03:47:25;;;;;;;7.88;3.13;;;16.80;99.90;;;;;;5033488;28;20167;-83
2021/08/14 03:49:51;;;;;;;12.35;2.78;;;16.80;99.90;;;;;;5033517;28;20729;-83
2021/08/14 03:52:20;;;;;;;13.93;3.00;;;16.90;99.90;;;;;;5033272;28;20164;-84
2021/08/14 03:54:47;;;;;;;9.23;3.25;;;17.00;99.90;;;;;;5048228;28;20184;-83
2021/08/14 03:57:12;;;;;;;8.80;2.83;;;17.10;99.90;;;;;;5033054;28;20250;-84
2021/08/14 03:59:38;;;;;;;22.00;3.85;;;16.70;99.90;;;;;;5049157;28;20607;-84
2021/08/14 04:02:04;;;;;;;13.35;3.17;;;16.60;99.90;;;;;;5048560;28;20171;-83
2021/08/14 04:04:29;;;;;;;7.35;3.63;;;16.60;99.90;;;;;;5048939;28;20183;-83
2021/08/14 04:06:55;;;;;;;9.50;3.45;;;16.60;99.90;;;;;;5033201;28;20190;-83
2021/08/14 04:09:20;;;;;;;9.15;3.45;;;16.30;99.90;;;;;;5048415;28;20172;-84
2021/08/14 04:11:46;;;;;;;14.73;3.95;;;16.20;99.90;;;;;;5032742;28;20646;-83
2021/08/14 04:14:12;;;;;;;9.20;3.80;;;16.20;99.90;;;;;;5033054;28;20252;-83
2021/08/14 04:16:38;;;;;;;15.98;3.67;;;16.20;99.90;;;;;;5048285;28;20176;-84
2021/08/14 04:19:03;;;;;;;9.90;3.15;;;16.30;99.90;;;;;;5032930;28;20174;-83
2021/08/14 04:21:29;;;;;;;9.25;3.85;;;16.40;99.90;;;;;;5047870;28;20197;-82
2021/08/14 04:23:54;;;;;;;12.02;3.25;;;16.50;99.90;;;;;;5047833;28;20259;-82
2021/08/14 04:26:20;;;;;;;8.82;3.30;;;16.40;99.90;;;;;;5048238;28;20271;-83
2021/08/14 04:28:45;;;;;;;7.43;2.97;;;16.40;99.90;;;;;;5032627;28;20168;-82
2021/08/14 04:31:11;;;;;;;11.70;3.28;;;16.30;99.90;;;;;;5047974;28;20651;-82
2021/08/14 04:33:37;;;;;;;9.05;3.47;;;16.20;99.90;;;;;;5032388;28;20199;-82
2021/08/14 04:36:03;;;;;;;12.88;4.28;;;16.10;99.90;;;;;;5032133;28;20195;-82
2021/08/14 04:38:28;;;;;;;14.65;3.55;;;16.00;99.90;;;;;;5047945;28;20171;-81
2021/08/14 04:40:54;;;;;;;14.27;3.47;;;16.20;99.90;;;;;;5032566;28;20190;-80
2021/08/14 04:43:19;;;;;;;13.05;3.80;;;16.20;99.90;;;;;;5048075;28;20259;-82
2021/08/14 04:45:45;;;;;;;16.10;4.28;;;16.20;99.90;;;;;;5047228;28;20727;-83
2021/08/14 04:48:11;;;;;;;15.77;3.33;;;16.30;99.90;;;;;;5047583;28;20175;-83
2021/08/14 04:50:37;;;;;;;14.48;4.70;;;16.40;99.90;;;;;;5047466;28;20211;-83
2021/08/14 04:53:02;;;;;;;14.55;3.85;;;16.50;99.90;;;;;;5032600;28;20211;-81
2021/08/14 04:55:28;;;;;;;8.73;4.38;;;16.60;99.90;;;;;;5032326;28;20198;-80
2021/08/14 04:57:53;;;;;;;14.57;3.25;;;16.60;99.90;;;;;;5032542;28;20167;-81
2021/08/14 05:00:19;;;;;;;6.38;3.25;;;16.80;99.90;;;;;;5032315;28;20637;-81
2021/08/14 05:02:45;;;;;;;6.97;3.15;;;16.80;99.90;;;;;;5031132;28;20179;-83
2021/08/14 05:05:10;;;;;;;22.42;4.32;;;16.80;99.90;;;;;;5047560;28;20188;-83
2021/08/14 05:07:36;;;;;;;10.85;3.22;;;16.90;99.90;;;;;;5032393;28;20202;-86
2021/08/14 05:10:03;;;;;;;14.65;3.65;;;16.90;99.90;;;;;;5047987;28;20160;-84
2021/08/14 05:12:30;;;;;;;17.98;3.67;;;17.00;99.90;;;;;;5032214;28;20227;-83
2021/08/14 05:14:55;;;;;;;14.68;4.10;;;17.20;99.90;;;;;;5032535;28;20167;-81
2021/08/14 05:17:21;;;;;;;9.98;3.42;;;17.00;99.90;;;;;;5033220;28;20174;-81
2021/08/14 05:19:46;;;;;;;9.15;3.95;;;17.10;99.90;;;;;;5050635;28;20190;-80
2021/08/14 05:22:12;;;;;;;12.77;2.95;;;16.80;99.90;;;;;;5035659;28;20179;-81
2021/08/14 05:24:38;;;;;;;11.40;3.30;;;16.80;99.90;;;;;;5051827;28;20229;-82
2021/08/14 05:27:04;;;;;;;14.73;3.85;;;16.70;99.90;;;;;;5051549;28;20200;-82
2021/08/14 05:29:30;;;;;;;8.02;3.67;;;16.70;99.90;;;;;;5058404;28;20171;-81
2021/08/14 05:31:55;;;;;;;19.80;3.75;;;16.80;99.90;;;;;;5066825;28;20182;-83
2021/08/14 05:34:21;;;;;;;12.43;3.40;;;16.80;99.90;;;;;;5065307;28;20206;-81
2021/08/14 05:36:46;;;;;;;12.38;3.50;;;16.70;99.90;;;;;;5051681;28;20722;-82
2021/08/14 05:39:12;;;;;;;9.77;3.00;;;16.90;99.90;;;;;;5066655;28;20168;-83
2021/08/14 05:41:40;;;;;;;13.10;3.80;;;16.90;99.90;;;;;;5054759;28;20570;-83
2021/08/14 05:44:07;;;;;;;8.88;3.65;;;17.10;99.90;;;;;;5047331;28;20171;-82
2021/08/14 05:46:33;;;;;;;8.27;3.58;;;17.20;99.90;;;;;;5032283;28;20206;-82
2021/08/14 05:48:58;;;;;;;8.85;3.63;;;17.20;99.90;;;;;;5047748;28;20171;-83
2021/08/14 05:51:24;;;;;;;14.52;3.63;;;17.30;99.90;;;;;;5031930;28;20170;-83
2021/08/14 05:53:50;;;;;;;15.32;3.33;;;17.40;99.90;;;;;;5031894;28;20204;-82
2021/08/14 05:56:16;;;;;;;14.93;3.95;;;17.60;99.90;;;;;;5047285;28;20195;-83
2021/08/14 05:58:41;;;;;;;12.38;3.72;;;17.60;99.90;;;;;;5032731;28;20572;-85
2021/08/14 06:01:08;;;;;;;12.75;4.28;;;17.60;99.90;;;;;;5047736;28;20203;-82
2021/08/14 06:03:35;;;;;;;12.57;3.63;;;17.50;99.90;;;;;;5048394;28;20222;-92
2021/08/14 06:06:02;;;;;;;11.70;3.60;;;17.50;99.90;;;;;;5035052;28;20183;-91
2021/08/14 06:08:27;;;;;;;8.60;3.35;;;17.50;99.90;;;;;;5049798;28;20198;-87
2021/08/14 06:10:53;;;;;;;10.88;3.25;;;17.80;99.90;;;;;;5034116;28;20155;-89
2021/08/14 06:13:18;;;;;;;14.93;3.55;;;17.80;99.90;;;;;;5048722;28;20651;-88
2021/08/14 06:15:44;;;;;;;10.07;3.20;;;17.70;99.90;;;;;;5048585;28;20192;-86
2021/08/14 06:18:13;;;;;;;10.98;4.18;;;17.70;99.90;;;;;;5051326;28;20171;-89
2021/08/14 06:20:39;;;;;;;7.03;3.35;;;17.90;99.90;;;;;;5053206;28;20168;-88
2021/08/14 06:23:04;;;;;;;9.82;3.58;;;18.00;99.90;;;;;;5037176;28;20242;-90
2021/08/14 06:25:30;;;;;;;9.40;3.22;;;17.80;99.90;;;;;;5052452;28;20202;-89
2021/08/14 06:27:55;;;;;;;11.85;3.25;;;17.70;99.90;;;;;;5052714;28;20258;-89
2021/08/14 06:30:21;;;;;;;6.72;2.67;;;17.70;99.90;;;;;;5052640;28;20600;-89
2021/08/14 06:32:47;;;;;;;18.63;3.72;;;17.80;99.90;;;;;;5036726;28;20582;-89
2021/08/14 06:35:12;;;;;;;10.32;3.42;;;18.00;99.90;;;;;;5036609;28;20233;-89
2021/08/14 06:37:43;;;;;;;22.15;3.67;;;18.10;99.90;;;;;;5037244;28;20164;-90
2021/08/14 06:40:10;;;;;;;14.43;3.17;;;18.20;99.90;;;;;;5037560;28;20196;-89
2021/08/14 06:42:36;;;;;;;8.73;2.72;;;18.20;99.90;;;;;;5054530;28;20178;-87
2021/08/14 06:45:02;;;;;;;12.35;3.58;;;18.20;99.90;;;;;;5053082;28;20619;-87
2021/08/14 06:47:27;;;;;;;16.95;5.13;;;18.30;99.90;;;;;;5052376;28;20246;-87
2021/08/14 06:49:53;;;;;;;14.82;3.67;;;18.20;99.90;;;;;;5052325;28;20246;-87
2021/08/14 06:52:19;;;;;;;17.80;4.00;;;18.40;99.90;;;;;;5036805;28;20222;-87
2021/08/14 06:54:44;;;;;;;14.38;3.53;;;18.50;99.90;;;;;;5036207;28;20179;-86
2021/08/14 06:57:11;;;;;;;11.23;3.17;;;18.50;99.90;;;;;;5036154;28;20188;-85
2021/08/14 06:59:36;;;;;;;10.40;3.80;;;18.40;99.90;;;;;;5035895;28;20586;-86
2021/08/14 07:02:02;;;;;;;10.23;4.28;;;18.60;99.90;;;;;;5050906;28;20195;-84
2021/08/14 07:04:27;;;;;;;17.42;3.45;;;18.50;99.90;;;;;;5051324;28;20208;-87
2021/08/14 07:06:53;;;;;;;8.18;3.40;;;18.60;99.90;;;;;;5034429;28;20192;-86
2021/08/14 07:09:19;;;;;;;19.25;3.78;;;18.80;99.90;;;;;;5035503;28;20171;-86
2021/08/14 07:11:45;;;;;;;15.90;3.55;;;18.90;99.90;;;;;;5036099;28;20172;-89
2021/08/14 07:14:12;;;;;;;14.95;3.63;;;18.90;99.90;;;;;;5051879;28;20606;-83
2021/08/14 07:16:38;;;;;;;9.88;3.20;;;19.00;99.90;;;;;;5051095;28;20184;-87
2021/08/14 07:19:04;;;;;;;19.25;3.97;;;18.80;99.90;;;;;;5051263;28;20546;-83
2021/08/14 07:21:30;;;;;;;13.20;3.63;;;18.80;99.90;;;;;;5050430;28;20214;-82
2021/08/14 07:23:55;;;;;;;11.85;3.40;;;18.90;99.90;;;;;;5035127;28;20175;-83
2021/08/14 07:26:22;;;;;;;11.05;3.50;;;19.00;99.90;;;;;;5034315;28;20191;-83
2021/08/14 07:28:49;;;;;;;12.55;3.85;;;19.10;99.90;;;;;;5048388;28;20207;-82
2021/08/14 07:31:15;;;;;;;14.60;3.88;;;19.40;99.90;;;;;;5049663;28;20172;-84
2021/08/14 07:33:40;;;;;;;9.15;2.78;;;19.70;99.90;;;;;;5049645;28;20203;-83
2021/08/14 07:36:07;;;;;;;9.73;3.15;;;20.00;99.90;;;;;;5034894;28;20507;-81
2021/08/14 07:38:33;;;;;;;18.15;3.97;;;20.10;99.90;;;;;;5050310;28;20168;-82
2021/08/14 07:40:59;;;;;;;8.63;3.45;;;20.00;99.90;;;;;;5033020;28;20186;-82
2021/08/14 07:43:24;;;;;;;13.70;3.08;;;20.00;99.90;;;;;;5032827;28;20168;-81
2021/08/14 07:45:50;;;;;;;13.23;3.20;;;20.20;99.90;;;;;;5034127;28;20356;-82
2021/08/14 07:48:15;;;;;;;17.85;3.92;;;20.30;99.90;;;;;;5034077;28;20175;-82
2021/08/14 07:50:41;;;;;;;10.95;3.33;;;20.20;99.90;;;;;;5034139;28;20628;-82
2021/08/14 07:53:07;;;;;;;8.93;3.13;;;20.20;99.90;;;;;;5049181;28;20211;-82
2021/08/14 07:55:33;;;;;;;11.25;3.17;;;20.10;99.90;;;;;;5033967;28;20188;-82
2021/08/14 07:57:59;;;;;;;14.25;3.22;;;20.00;99.90;;;;;;5034041;28;20171;-81
2021/08/14 08:00:26;;;;;;;12.07;3.88;;;20.00;99.90;;;;;;5033876;28;20611;-81
2021/08/14 08:02:52;;;;;;;14.88;3.83;;;19.90;99.90;;;;;;5033763;28;20595;-81
2021/08/14 08:05:18;;;;;;;10.98;3.22;;;20.00;99.90;;;;;;5034206;28;20196;-81
2021/08/14 08:07:44;;;;;;;14.80;4.45;;;20.10;99.90;;;;;;5033940;28;20172;-81
2021/08/14 08:10:19;;;;;;;9.45;3.67;;;20.30;99.90;;;;;;5033602;28;20167;-81
2021/08/14 08:12:45;;;;;;;17.15;3.90;;;20.40;99.90;;;;;;5033370;28;20237;-81
2021/08/14 08:15:12;;;;;;;12.73;4.60;;;20.40;99.90;;;;;;5033575;28;20196;-81
2021/08/14 08:17:39;;;;;;;8.07;3.03;;;20.60;99.90;;;;;;5032236;28;20164;-82
2021/08/14 08:20:06;;;;;;;9.95;4.07;;;20.60;99.90;;;;;;5033825;28;20195;-82
2021/08/14 08:22:31;;;;;;;12.30;3.38;;;20.70;99.90;;;;;;5034207;28;20191;-82
2021/08/14 08:24:57;;;;;;;10.75;3.55;;;20.70;99.90;;;;;;5048972;28;20624;-82
2021/08/14 08:27:23;;;;;;;8.60;3.65;;;20.60;99.90;;;;;;5048210;28;20214;-82
2021/08/14 08:29:49;;;;;;;9.70;3.58;;;20.70;99.90;;;;;;5048728;28;20251;-82
2021/08/14 08:32:15;;;;;;;17.17;3.75;;;20.90;99.90;;;;;;5033166;28;20310;-82
2021/08/14 08:34:40;;;;;;;13.45;4.55;;;20.90;99.90;;;;;;5033082;28;20693;-82
2021/08/14 08:37:06;;;;;;;7.80;3.13;;;20.80;99.90;;;;;;5048300;28;20247;-82
2021/08/14 08:39:32;;;;;;;13.13;3.53;;;20.90;99.90;;;;;;5048770;28;20282;-82
2021/08/14 08:41:59;;;;;;;17.15;3.70;;;21.00;99.90;;;;;;5047999;28;20194;-82
2021/08/14 08:44:26;;;;;;;15.32;4.07;;;21.10;99.90;;;;;;5033117;28;20156;-82
2021/08/14 08:46:51;;;;;;;10.20;3.63;;;21.30;99.90;;;;;;5048370;28;20183;-81
2021/08/14 08:49:19;;;;;;;10.80;3.95;;;21.30;99.90;;;;;;5048794;28;20650;-82
2021/08/14 08:51:45;;;;;;;11.63;3.63;;;21.50;99.90;;;;;;5048814;28;20174;-82
2021/08/14 08:54:15;;;;;;;10.07;3.88;;;21.50;99.90;;;;;;5033876;28;20208;-81
2021/08/14 08:56:41;;;;;;;15.00;3.85;;;21.50;99.90;;;;;;5033571;28;20242;-82
2021/08/14 08:59:11;;;;;;;11.13;4.05;;;21.60;99.90;;;;;;5032800;28;20172;-82
2021/08/14 09:01:37;;;;;;;11.95;3.58;;;21.70;99.90;;;;;;5048166;28;20167;-81
2021/08/14 09:04:31;;;;;;;12.48;2.83;;;21.70;99.90;;;;;;5032871;28;20179;-82
2021/08/14 09:07:00;;;;;;;10.40;3.63;;;21.70;99.90;;;;;;5047590;28;20693;-81
2021/08/14 09:09:28;;;;;;;11.48;3.08;;;21.70;99.90;;;;;;5032432;28;20172;-83
2021/08/14 09:12:03;;;;;;;14.35;3.42;;;21.90;99.90;;;;;;5032540;28;20168;-82
2021/08/14 09:14:49;;;;;;;10.68;3.83;;;22.00;99.90;;;;;;5047987;28;20203;-83
2021/08/14 09:17:15;;;;;;;14.43;4.18;;;22.10;99.90;;;;;;5032465;28;20207;-82
2021/08/14 09:19:41;;;;;;;14.85;3.50;;;22.10;99.90;;;;;;5032336;28;20168;-82
2021/08/14 09:22:20;;;;;;;10.98;3.85;;;22.30;99.90;;;;;;5047771;28;20650;-82
2021/08/14 09:24:46;;;;;;;6.68;3.33;;;22.50;99.90;;;;;;5047761;28;20183;-82
2021/08/14 09:27:15;;;;;;;7.85;3.10;;;22.50;99.90;;;;;;5047680;28;20188;-82
2021/08/14 09:29:42;;;;;;;13.02;2.85;;;22.50;99.90;;;;;;5032388;28;20179;-81
2021/08/14 09:32:10;;;;;;;7.03;2.72;;;22.60;99.90;;;;;;5032189;28;20194;-83
2021/08/14 09:34:42;;;;;;;10.73;3.45;;;22.50;99.90;;;;;;5047912;28;20207;-82
2021/08/14 09:37:10;;;;;;;10.57;3.25;;;22.60;99.90;;;;;;5032239;28;20194;-82
2021/08/14 09:39:50;;;;;;;20.50;3.67;;;22.60;99.90;;;;;;5031918;28;20211;-81
2021/08/14 09:42:16;;;;;;;10.15;3.60;;;22.60;99.90;;;;;;5047064;28;20194;-83
2021/08/14 09:44:42;;;;;;;9.98;3.03;;;22.80;99.90;;;;;;5032536;28;20168;-83
2021/08/14 09:47:27;;;;;;;11.25;3.33;;;23.00;99.90;;;;;;5047717;28;20192;-83
2021/08/14 09:49:55;;;;;;;10.25;2.60;;;23.20;99.90;;;;;;5047161;28;20203;-83
2021/08/14 09:52:23;;;;;;;16.73;3.08;;;23.10;99.90;;;;;;5033001;28;20233;-83
2021/08/14 09:54:49;;;;;;;9.02;3.35;;;23.30;99.90;;;;;;5051125;28;20168;-83
2021/08/14 09:57:16;;;;;;;11.55;2.75;;;23.20;99.90;;;;;;5035406;28;20234;-83
2021/08/14 09:59:45;;;;;;;10.30;3.15;;;23.20;99.90;;;;;;5051408;28;20160;-83
2021/08/14 10:02:16;;;;;;;6.63;3.10;;;23.10;99.90;;;;;;5035816;28;20275;-82
2021/08/14 10:04:44;;;;;;;9.27;2.63;;;23.00;99.90;;;;;;5051335;28;20164;-82
2021/08/14 10:07:11;;;;;;;6.20;3.00;;;23.20;99.90;;;;;;5051010;28;20203;-82
2021/08/14 10:09:37;;;;;;;6.18;2.67;;;23.30;99.90;;;;;;5051646;28;20207;-82
2021/08/14 10:12:03;;;;;;;12.23;3.03;;;23.40;99.90;;;;;;5036829;28;20237;-82
2021/08/14 10:14:30;;;;;;;12.60;3.08;;;23.40;99.90;;;;;;5036691;28;20671;-82
2021/08/14 10:16:56;;;;;;;9.63;2.97;;;23.50;99.90;;;;;;5036572;28;20553;-85
2021/08/14 10:19:23;;;;;;;10.57;3.28;;;23.40;99.90;;;;;;5053001;28;20192;-86
2021/08/14 10:21:56;;;;;;;11.65;2.90;;;23.40;99.90;;;;;;5052361;28;20214;-85
2021/08/14 10:24:22;;;;;;;10.00;3.13;;;23.40;99.90;;;;;;5052357;28;20254;-86
2021/08/14 10:26:48;;;;;;;11.93;2.97;;;23.60;99.90;;;;;;5036364;28;20293;-86
2021/08/14 10:29:16;;;;;;;12.10;3.05;;;23.70;99.90;;;;;;5036527;28;20191;-84
2021/08/14 10:31:45;;;;;;;11.07;2.78;;;23.70;99.90;;;;;;5052138;28;20172;-85
2021/08/14 10:34:11;;;;;;;11.18;2.72;;;23.70;99.90;;;;;;5051735;28;20208;-83
2021/08/14 10:36:38;;;;;;;7.57;2.92;;;23.70;99.90;;;;;;5051072;28;20559;-83
2021/08/14 10:39:17;;;;;;;8.68;3.33;;;23.50;99.90;;;;;;5050915;28;20172;-82
2021/08/14 10:41:43;;;;;;;8.23;2.95;;;23.50;99.90;;;;;;5050851;28;20186;-83
2021/08/14 10:44:10;;;;;;;4.65;2.75;;;23.60;99.90;;;;;;5050767;28;20178;-83
2021/08/14 10:46:48;;;;;;;7.57;2.67;;;23.60;99.90;;;;;;5050682;28;20196;-82
2021/08/14 10:49:32;;;;;;;11.00;3.30;;;23.70;99.90;;;;;;5035544;28;20183;-88
2021/08/14 10:52:00;;;;;;;7.55;2.70;;;23.90;99.90;;;;;;5035435;28;20167;-82
2021/08/14 10:54:35;;;;;;;8.82;3.05;;;24.10;99.90;;;;;;5050420;28;20215;-83
2021/08/14 10:57:03;;;;;;;7.28;2.72;;;24.00;99.90;;;;;;5034848;28;20708;-82
2021/08/14 10:59:35;;;;;;;8.43;3.22;;;24.10;99.90;;;;;;5033351;28;20164;-83
2021/08/14 11:02:20;;;;;;;8.10;2.97;;;24.30;99.90;;;;;;5050221;28;20172;-83
2021/08/14 11:04:56;;;;;;;7.65;3.15;;;24.40;99.90;;;;;;5027781;28;20192;-83
2021/08/14 11:07:21;;;;;;;7.13;2.60;;;24.10;99.90;;;;;;5049834;28;20624;-83
2021/08/14 11:09:53;;;;;;;13.95;3.70;;;24.10;99.90;;;;;;5034854;28;20182;-85
2021/08/14 11:12:32;;;;;;;7.80;3.47;;;24.10;99.90;;;;;;5050829;28;20499;-86
2021/08/14 11:15:14;;;;;;;9.48;3.00;;;24.20;99.90;;;;;;5035750;28;20662;-81
2021/08/14 11:17:40;;;;;;;8.60;3.58;;;24.10;99.90;;;;;;5050657;28;20172;-84
2021/08/14 11:20:24;;;;;;;8.90;3.00;;;24.20;99.90;;;;;;5050001;28;20172;-84
2021/08/14 11:22:52;;;;;;;9.23;3.88;;;24.20;99.90;;;;;;5049745;28;20214;-83
2021/08/14 11:25:36;;;;;;;13.35;3.42;;;24.20;99.90;;;;;;5034342;28;20180;-84
2021/08/14 11:28:07;;;;;;;12.23;2.90;;;24.20;99.90;;;;;;5035743;28;20199;-85
2021/08/14 11:30:39;;;;;;;19.42;3.70;;;24.30;99.90;;;;;;5034838;28;20196;-84
2021/08/14 11:33:07;;;;;;;10.68;3.67;;;24.30;99.90;;;;;;5049765;28;20284;-84
2021/08/14 11:35:35;;;;;;;8.63;3.53;;;24.40;99.90;;;;;;5049630;28;20210;-83
2021/08/14 11:38:04;;;;;;;9.77;3.55;;;24.50;99.90;;;;;;5034990;28;20160;-85
2021/08/14 11:40:35;;;;;;;7.60;3.53;;;24.40;99.90;;;;;;5049766;28;20781;-85
2021/08/14 11:43:03;;;;;;;7.35;4.00;;;24.30;99.90;;;;;;5034137;28;20175;-85
2021/08/14 11:45:30;;;;;;;7.97;3.30;;;24.20;99.90;;;;;;5049685;28;20192;-85
2021/08/14 11:48:07;;;;;;;13.25;3.65;;;24.20;99.90;;;;;;5049967;28;20176;-85
2021/08/14 11:50:35;;;;;;;7.07;3.25;;;24.30;99.90;;;;;;5049448;28;20237;-85
2021/08/14 11:53:02;;;;;;;6.68;3.45;;;24.40;99.90;;;;;;5049733;28;20203;-83
2021/08/14 11:55:28;;;;;;;8.05;3.22;;;24.30;99.90;;;;;;5034136;28;20204;-84
2021/08/14 11:57:53;;;;;;;10.40;4.22;;;24.50;99.90;;;;;;5050006;28;20172;-86
2021/08/14 12:00:22;;;;;;;6.70;3.45;;;24.40;99.90;;;;;;5034616;28;20167;-87
2021/08/14 12:03:01;;;;;;;7.45;3.30;;;24.40;99.90;;;;;;5049619;28;20167;-87
2021/08/14 12:05:27;;;;;;;5.68;3.15;;;24.60;99.90;;;;;;5049070;28;20206;-87
2021/08/14 12:07:53;;;;;;;11.50;3.63;;;24.60;99.90;;;;;;5049829;28;20636;-83
2021/08/14 12:10:21;;;;;;;5.65;3.15;;;24.60;99.90;;;;;;5048805;28;20168;-85
2021/08/14 12:13:02;;;;;;;10.95;3.20;;;24.50;99.90;;;;;;5048532;28;20286;-85
2021/08/14 12:15:42;;;;;;;12.00;3.58;;;24.60;99.90;;;;;;5048311;28;20210;-83
2021/08/14 12:18:08;;;;;;;7.78;3.38;;;24.60;99.90;;;;;;5048740;28;20160;-86
2021/08/14 12:20:39;;;;;;;7.32;3.20;;;24.40;99.90;;;;;;5033602;28;20199;-83
2021/08/14 12:23:25;;;;;;;10.93;3.67;;;24.50;99.90;;;;;;5048267;28;20623;-84
2021/08/14 12:25:59;;;;;;;5.55;3.45;;;24.60;99.90;;;;;;5048812;28;20278;-83
2021/08/14 12:28:26;;;;;;;9.93;3.97;;;24.70;99.90;;;;;;5049135;28;20263;-84
2021/08/14 12:30:52;;;;;;;12.60;4.00;;;24.70;99.90;;;;;;5032301;28;20168;-85
2021/08/14 12:33:30;;;;;;;5.55;3.75;;;24.70;99.90;;;;;;5049104;28;20207;-84
2021/08/14 12:36:04;;;;;;;11.95;3.47;;;24.70;99.90;;;;;;5033534;28;20191;-84
2021/08/14 12:38:32;;;;;;;5.38;3.13;;;24.80;99.90;;;;;;5048545;28;20183;-84
2021/08/14 12:41:16;;;;;;;5.78;3.08;;;24.90;99.90;;;;;;5033887;28;20214;-83